createdAt,value
2023-04-18T00:03:05.114Z,73.01
2023-04-18T00:06:11.044Z,72.85
2023-04-18T00:09:20.462Z,72.43
2023-04-18T00:12:26.006Z,73.26
2023-04-18T00:15:32.582Z,73.01
2023-04-18T00:18:38.093Z,73.23
2023-04-18T00:21:45.214Z,72.68
2023-04-18T00:24:54.871Z,74.32
2023-04-18T00:28:01.581Z,73.76
2023-04-18T00:31:07.292Z,73.59
2023-04-18T00:34:13.797Z,73.31
2023-04-18T00:37:19.723Z,72.66
2023-04-18T00:40:30.944Z,72.71
2023-04-18T00:43:37.478Z,73.21
2023-04-18T00:46:44.154Z,73.02
2023-04-18T00:49:51.725Z,72.98
2023-04-18T00:53:00.033Z,73.44
2023-04-18T00:56:09.498Z,73.14
2023-04-18T00:59:17.599Z,74.00
2023-04-18T01:02:26.479Z,73.42
2023-04-18T01:05:33.260Z,73.60
2023-04-18T01:08:40.354Z,73.16
2023-04-18T01:11:49.420Z,73.47
2023-04-18T01:14:55.067Z,73.71
2023-04-18T01:18:03.849Z,73.38
2023-04-18T01:21:10.211Z,73.06
2023-04-18T01:24:24.964Z,72.80
2023-04-18T01:27:30.734Z,73.50
2023-04-18T01:30:39.823Z,73.04
2023-04-18T01:33:45.399Z,72.43
2023-04-18T01:36:52.194Z,72.57
2023-04-18T01:40:01.350Z,73.39
2023-04-18T01:43:07.682Z,73.29
2023-04-18T01:46:17.066Z,73.19
2023-04-18T01:49:23.393Z,72.65
2023-04-18T01:52:29.302Z,72.91
2023-04-18T01:55:38.370Z,73.32
2023-04-18T01:58:45.194Z,73.48
2023-04-18T02:01:52.454Z,72.39
2023-04-18T02:04:57.952Z,72.31
2023-04-18T02:08:04.503Z,72.40
2023-04-18T02:11:13.183Z,72.64
2023-04-18T02:14:20.129Z,73.09
2023-04-18T02:17:26.626Z,72.73
2023-04-18T02:20:35.209Z,72.44
2023-04-18T02:23:40.841Z,73.29
2023-04-18T02:26:50.030Z,73.03
2023-04-18T02:29:57.408Z,73.05
2023-04-18T02:33:04.013Z,72.41
2023-04-18T02:36:10.628Z,72.68
2023-04-18T02:39:16.944Z,72.25
2023-04-18T02:42:25.178Z,72.65
2023-04-18T02:45:32.975Z,72.38
2023-04-18T02:48:39.310Z,73.64
2023-04-18T02:51:47.024Z,72.99
2023-04-18T02:54:53.679Z,73.35
2023-04-18T02:58:08.060Z,73.64
2023-04-18T03:01:41.145Z,73.12
2023-04-18T03:04:52.800Z,73.50
2023-04-18T03:07:58.342Z,73.19
2023-04-18T03:11:05.134Z,72.84
2023-04-18T03:14:13.707Z,73.04
2023-04-18T03:17:28.305Z,72.82
2023-04-18T03:20:33.956Z,72.41
2023-04-18T03:23:40.475Z,72.38
2023-04-18T03:26:46.327Z,72.98
2023-04-18T03:29:56.026Z,72.54
2023-04-18T03:33:03.110Z,72.20
2023-04-18T03:36:10.893Z,71.86
2023-04-18T03:39:16.444Z,72.26
2023-04-18T03:42:23.510Z,72.32
2023-04-18T03:45:32.045Z,72.59
2023-04-18T03:48:39.265Z,71.93
2023-04-18T03:51:50.531Z,71.66
2023-04-18T03:54:57.808Z,72.51
2023-04-18T03:58:08.882Z,72.44
2023-04-18T04:01:18.329Z,72.31
2023-04-18T04:04:23.998Z,72.00
2023-04-18T04:07:30.673Z,72.56
2023-04-18T04:10:36.258Z,71.91
2023-04-18T04:13:43.232Z,72.03
2023-04-18T04:16:54.710Z,71.88
2023-04-18T04:20:02.109Z,70.75
2023-04-18T04:23:10.340Z,71.26
2023-04-18T04:26:18.800Z,71.04
2023-04-18T04:29:33.154Z,71.18
2023-04-18T04:32:44.972Z,71.23
2023-04-18T04:35:51.300Z,70.89
2023-04-18T04:38:57.785Z,71.56
2023-04-18T04:42:12.784Z,69.78
2023-04-18T04:45:29.768Z,69.36
2023-04-18T04:48:38.050Z,69.63
2023-04-18T04:51:44.631Z,70.27
2023-04-18T04:54:50.369Z,70.14
2023-04-18T04:57:58.786Z,69.33
2023-04-18T05:01:45.389Z,70.19
2023-04-18T05:04:54.661Z,70.08
2023-04-18T05:08:00.203Z,70.00
2023-04-18T05:11:07.372Z,69.49
2023-04-18T05:14:13.474Z,69.49
2023-04-18T05:17:20.029Z,68.19
2023-04-18T05:20:28.389Z,68.40
2023-04-18T05:23:37.351Z,67.62
2023-04-18T05:26:43.103Z,67.92
2023-04-18T05:29:50.604Z,68.09
2023-04-18T05:32:56.658Z,68.07
2023-04-18T05:36:05.826Z,67.69
2023-04-18T05:39:11.635Z,67.37
2023-04-18T05:42:18.212Z,67.48
2023-04-18T05:45:24.324Z,67.80
2023-04-18T05:48:31.299Z,66.99
2023-04-18T05:51:39.630Z,67.65
2023-04-18T05:54:46.014Z,67.05
2023-04-18T05:57:51.530Z,66.02
2023-04-18T06:00:58.221Z,66.30
2023-04-18T06:04:03.875Z,65.32
2023-04-18T06:07:13.440Z,66.44
2023-04-18T06:10:19.170Z,65.35
2023-04-18T06:13:25.719Z,64.04
2023-04-18T06:16:31.419Z,64.11
2023-04-18T06:19:37.754Z,62.83
2023-04-18T06:22:46.066Z,62.83
2023-04-18T06:25:52.621Z,62.10
2023-04-18T06:28:58.097Z,60.72
2023-04-18T06:32:04.824Z,60.62
2023-04-18T06:35:11.284Z,60.50
2023-04-18T06:38:20.607Z,59.75
2023-04-18T06:41:26.154Z,60.07
2023-04-18T06:44:32.561Z,60.67
2023-04-18T06:47:38.304Z,59.30
2023-04-18T06:50:45.162Z,58.71
2023-04-18T06:53:54.071Z,58.78
2023-04-18T06:57:00.492Z,58.84
2023-04-18T07:00:06.835Z,59.52
2023-04-18T07:03:14.641Z,59.24
2023-04-18T07:06:20.241Z,60.26
2023-04-18T07:09:31.057Z,58.65
2023-04-18T07:12:36.927Z,58.41
2023-04-18T07:15:43.360Z,57.58
2023-04-18T07:18:49.065Z,57.69
2023-04-18T07:21:56.275Z,57.82
2023-04-18T07:25:04.769Z,57.66
2023-04-18T07:28:11.229Z,57.35
2023-04-18T07:31:16.840Z,57.16
2023-04-18T07:34:23.372Z,56.38
2023-04-18T07:37:29.296Z,57.36
2023-04-18T07:40:38.591Z,55.97
2023-04-18T07:43:45.125Z,56.26
2023-04-18T07:47:12.777Z,55.81
2023-04-18T07:50:33.551Z,56.71
2023-04-18T07:53:44.118Z,55.97
2023-04-18T07:56:52.398Z,56.92
2023-04-18T07:59:58.737Z,56.75
2023-04-18T08:03:04.563Z,57.79
2023-04-18T08:06:11.199Z,58.09
2023-04-18T08:09:20.866Z,57.18
2023-04-18T08:12:30.108Z,56.42
2023-04-18T08:15:35.668Z,57.15
2023-04-18T08:18:41.973Z,56.67
2023-04-18T08:21:47.654Z,56.42
2023-04-18T08:25:04.310Z,56.47
2023-04-18T08:28:13.979Z,55.59
2023-04-18T08:31:32.880Z,55.40
2023-04-18T08:34:40.113Z,55.16
2023-04-18T08:37:46.612Z,55.55
2023-04-18T08:40:52.354Z,54.85
2023-04-18T08:44:02.056Z,54.65
2023-04-18T08:47:07.777Z,54.51
2023-04-18T08:50:14.672Z,53.63
2023-04-18T08:53:20.443Z,54.04
2023-04-18T08:56:27.583Z,52.57
2023-04-18T08:59:36.063Z,52.30
2023-04-18T09:02:47.452Z,51.69
2023-04-18T09:06:12.744Z,51.51
2023-04-18T09:09:20.849Z,50.61
2023-04-18T09:12:29.864Z,50.16
2023-04-18T09:15:39.003Z,49.43
2023-04-18T09:18:45.428Z,49.52
2023-04-18T09:22:05.010Z,49.14
2023-04-18T09:25:14.571Z,49.98
2023-04-18T09:28:30.429Z,48.73
2023-04-18T09:31:38.913Z,48.67
2023-04-18T09:34:46.036Z,48.41
2023-04-18T09:37:53.624Z,47.96
2023-04-18T09:41:12.105Z,47.45
2023-04-18T09:44:20.509Z,46.50
2023-04-18T09:47:31.219Z,47.12
2023-04-18T09:50:42.103Z,47.20
2023-04-18T09:53:50.513Z,47.39
2023-04-18T09:56:56.809Z,47.20
2023-04-18T10:00:17.454Z,46.08
2023-04-18T10:03:37.357Z,45.96
2023-04-18T10:06:45.945Z,46.37
2023-04-18T10:09:53.032Z,46.04
2023-04-18T10:13:03.254Z,46.53
2023-04-18T10:16:13.061Z,44.17
2023-04-18T10:19:32.875Z,43.35
2023-04-18T10:22:38.518Z,43.27
2023-04-18T10:25:52.812Z,42.71
2023-04-18T10:29:01.165Z,42.17
2023-04-18T10:32:10.094Z,42.63
2023-04-18T10:35:18.698Z,43.25
2023-04-18T10:38:26.744Z,43.59
2023-04-18T10:41:34.464Z,42.88
2023-04-18T10:44:40.870Z,43.85
2023-04-18T10:47:46.710Z,39.96
2023-04-18T10:51:18.821Z,41.54
2023-04-18T10:54:38.041Z,41.29
2023-04-18T10:57:47.463Z,41.32
2023-04-18T11:00:56.716Z,39.99
2023-04-18T11:04:04.339Z,39.96
2023-04-18T11:07:12.773Z,39.25
2023-04-18T11:10:25.680Z,39.58
2023-04-18T11:13:32.078Z,39.27
2023-04-18T11:16:39.009Z,40.26
2023-04-18T11:19:44.521Z,39.42
2023-04-18T11:22:58.100Z,40.04
2023-04-18T11:26:03.638Z,41.06
2023-04-18T11:29:09.969Z,40.62
2023-04-18T11:32:15.668Z,39.07
2023-04-18T11:35:22.309Z,38.72
2023-04-18T11:38:34.128Z,39.36
2023-04-18T11:41:44.625Z,38.44
2023-04-18T11:44:50.654Z,38.16
2023-04-18T11:48:01.533Z,38.11
2023-04-18T11:51:08.181Z,37.56
2023-04-18T11:54:45.997Z,37.76
2023-04-18T11:57:56.794Z,38.26
2023-04-18T12:01:19.285Z,38.98
2023-04-18T12:04:24.954Z,38.32
2023-04-18T12:07:40.743Z,38.37
2023-04-18T12:10:54.983Z,38.11
2023-04-18T12:14:02.558Z,38.85
2023-04-18T12:17:09.582Z,38.38
2023-04-18T12:20:17.098Z,36.85
2023-04-18T12:23:43.172Z,37.12
2023-04-18T12:26:53.066Z,38.32
2023-04-18T12:29:58.605Z,38.17
2023-04-18T12:33:07.282Z,37.96
2023-04-18T12:36:13.236Z,37.21
2023-04-18T12:39:19.592Z,37.60
2023-04-18T12:42:27.818Z,36.44
2023-04-18T12:45:34.436Z,35.30
2023-04-18T12:48:39.965Z,36.37
2023-04-18T12:51:46.823Z,36.43
2023-04-18T12:54:53.030Z,35.68
2023-04-18T12:58:02.407Z,35.49
2023-04-18T13:01:09.560Z,35.08
2023-04-18T13:04:16.341Z,35.61
2023-04-18T13:07:23.019Z,34.43
2023-04-18T13:10:29.507Z,34.46
2023-04-18T13:13:37.807Z,33.99
2023-04-18T13:16:44.296Z,34.16
2023-04-18T13:19:50.132Z,33.75
2023-04-18T13:22:57.666Z,34.04
2023-04-18T13:26:03.928Z,34.56
2023-04-18T13:29:13.292Z,36.83
2023-04-18T13:32:20.445Z,37.49
2023-04-18T13:35:26.823Z,36.69
2023-04-18T13:38:32.721Z,36.99
2023-04-18T13:41:38.995Z,38.13
2023-04-18T13:44:47.423Z,38.37
2023-04-18T13:47:53.923Z,38.60
2023-04-18T13:51:00.305Z,39.77
2023-04-18T13:54:07.173Z,39.11
2023-04-18T13:57:14.985Z,39.63
2023-04-18T14:00:24.647Z,38.94
2023-04-18T14:03:30.466Z,38.67
2023-04-18T14:06:37.034Z,38.54
2023-04-18T14:09:42.688Z,38.82
2023-04-18T14:12:49.512Z,38.18
2023-04-18T14:15:58.770Z,38.79
2023-04-18T14:19:05.478Z,38.07
2023-04-18T14:22:10.985Z,38.58
2023-04-18T14:25:17.526Z,38.26
2023-04-18T14:28:25.290Z,38.70
2023-04-18T14:31:34.739Z,39.05
2023-04-18T14:34:40.375Z,37.69
2023-04-18T14:37:46.915Z,38.57
2023-04-18T14:40:52.388Z,37.46
2023-04-18T14:43:58.812Z,36.62
2023-04-18T14:47:07.229Z,36.74
2023-04-18T14:50:15.668Z,38.31
2023-04-18T14:53:21.529Z,39.39
2023-04-18T14:56:27.942Z,40.53
2023-04-18T14:59:33.446Z,40.42
2023-04-18T15:02:43.044Z,40.48
2023-04-18T15:05:49.530Z,40.25
2023-04-18T15:08:57.034Z,39.87
2023-04-18T15:12:02.527Z,40.87
2023-04-18T15:15:10.319Z,41.52
2023-04-18T15:18:18.526Z,41.56
2023-04-18T15:21:24.826Z,42.00
2023-04-18T15:24:30.399Z,42.76
2023-04-18T15:27:37.072Z,42.69
2023-04-18T15:30:43.034Z,41.92
2023-04-18T15:33:52.216Z,41.32
2023-04-18T15:36:57.699Z,41.86
2023-04-18T15:40:06.233Z,41.72
2023-04-18T15:43:11.708Z,42.69
2023-04-18T15:46:18.221Z,42.73
2023-04-18T15:49:26.641Z,42.58
2023-04-18T15:52:33.141Z,42.25
2023-04-18T15:55:38.776Z,43.05
2023-04-18T15:58:45.355Z,42.35
2023-04-18T16:01:51.391Z,42.99
2023-04-18T16:05:00.547Z,42.71
2023-04-18T16:08:06.592Z,43.03
2023-04-18T16:11:13.492Z,43.64
2023-04-18T16:14:18.955Z,43.55
2023-04-18T16:17:25.362Z,43.39
2023-04-18T16:20:34.069Z,44.08
2023-04-18T16:23:40.393Z,44.17
2023-04-18T16:26:45.914Z,44.38
2023-04-18T16:29:54.059Z,44.55
2023-04-18T16:32:59.774Z,45.08
2023-04-18T16:36:09.535Z,46.65
2023-04-18T16:39:16.117Z,47.37
2023-04-18T16:42:22.520Z,47.85
2023-04-18T16:45:28.285Z,48.41
2023-04-18T16:48:38.011Z,47.98
2023-04-18T16:51:46.224Z,48.37
2023-04-18T16:54:52.832Z,49.02
2023-04-18T16:57:58.689Z,49.36
2023-04-18T17:01:05.248Z,49.69
2023-04-18T17:04:10.756Z,49.80
2023-04-18T17:07:19.966Z,50.42
2023-04-18T17:10:25.822Z,50.85
2023-04-18T17:13:32.880Z,51.16
2023-04-18T17:16:44.034Z,51.50
2023-04-18T17:19:50.423Z,51.45
2023-04-18T17:22:59.237Z,51.62
2023-04-18T17:26:05.771Z,51.83
2023-04-18T17:29:11.328Z,51.99
2023-04-18T17:32:18.126Z,52.06
2023-04-18T17:35:24.000Z,52.18
2023-04-18T17:38:33.183Z,52.70
2023-04-18T17:41:40.973Z,52.88
2023-04-18T17:44:47.356Z,53.21
2023-04-18T17:47:53.119Z,53.10
2023-04-18T17:50:59.500Z,53.54
2023-04-18T17:54:08.431Z,53.05
2023-04-18T17:57:15.239Z,53.66
2023-04-18T18:00:22.188Z,53.42
2023-04-18T18:03:28.807Z,53.79
2023-04-18T18:06:34.867Z,53.44
2023-04-18T18:09:45.687Z,54.32
2023-04-18T18:12:51.231Z,54.56
2023-04-18T18:15:58.708Z,53.99
2023-04-18T18:19:07.809Z,54.29
2023-04-18T18:22:14.145Z,54.18
2023-04-18T18:25:22.823Z,53.92
2023-04-18T18:28:29.270Z,53.35
2023-04-18T18:31:34.811Z,54.18
2023-04-18T18:34:41.179Z,54.05
2023-04-18T18:37:46.899Z,53.99
2023-04-18T18:40:56.045Z,53.83
2023-04-18T18:44:01.609Z,53.76
2023-04-18T18:47:08.052Z,54.40
2023-04-18T18:50:14.046Z,54.51
2023-04-18T18:53:20.590Z,54.12
2023-04-18T18:56:28.896Z,54.24
2023-04-18T18:59:35.298Z,54.52
2023-04-18T19:02:42.041Z,55.03
2023-04-18T19:05:49.370Z,55.67
2023-04-18T19:08:55.314Z,55.69
2023-04-18T19:12:04.834Z,57.42
2023-04-18T19:15:12.795Z,57.48
2023-04-18T19:18:20.337Z,58.08
2023-04-18T19:21:26.453Z,59.07
2023-04-18T19:24:33.067Z,59.68
2023-04-18T19:27:42.086Z,60.06
2023-04-18T19:30:49.023Z,61.13
2023-04-18T19:33:54.903Z,63.04
2023-04-18T19:37:01.579Z,63.34
2023-04-18T19:40:08.032Z,62.87
2023-04-18T19:43:17.977Z,63.38
2023-04-18T19:46:23.814Z,64.12
2023-04-18T19:49:30.671Z,64.94
2023-04-18T19:52:39.814Z,64.40
2023-04-18T19:55:48.436Z,65.07
2023-04-18T19:58:58.210Z,65.06
2023-04-18T20:02:06.416Z,65.10
2023-04-18T20:05:13.196Z,64.52
2023-04-18T20:08:20.017Z,64.85
2023-04-18T20:11:25.657Z,64.87
2023-04-18T20:14:35.916Z,65.58
2023-04-18T20:17:41.563Z,64.41
2023-04-18T20:20:48.220Z,65.08
2023-04-18T20:23:53.710Z,64.87
2023-04-18T20:27:03.342Z,65.68
2023-04-18T20:30:13.567Z,65.13
2023-04-18T20:33:20.214Z,65.21
2023-04-18T20:36:25.772Z,64.44
2023-04-18T20:39:32.873Z,65.30
2023-04-18T20:42:39.153Z,65.20
2023-04-18T20:45:51.393Z,65.99
2023-04-18T20:48:57.507Z,65.75
2023-04-18T20:52:03.938Z,64.63
2023-04-18T20:55:10.241Z,65.60
2023-04-18T20:58:17.108Z,65.70
2023-04-18T21:01:26.242Z,65.75
2023-04-18T21:04:33.304Z,64.96
2023-04-18T21:07:39.926Z,65.52
2023-04-18T21:10:46.285Z,64.54
2023-04-18T21:13:52.030Z,65.48
2023-04-18T21:17:02.053Z,65.52
2023-04-18T21:20:09.494Z,64.67
2023-04-18T21:23:15.856Z,64.51
2023-04-18T21:26:21.557Z,64.79
2023-04-18T21:29:28.166Z,64.21
2023-04-18T21:32:36.716Z,64.16
2023-04-18T21:35:43.155Z,64.92
2023-04-18T21:38:48.646Z,64.62
2023-04-18T21:41:54.997Z,64.22
2023-04-18T21:45:00.454Z,64.51
2023-04-18T21:48:12.206Z,64.35
2023-04-18T21:51:19.932Z,64.62
2023-04-18T21:54:26.330Z,64.18
2023-04-18T21:57:31.969Z,64.61
2023-04-18T22:00:38.603Z,64.07
2023-04-18T22:03:47.914Z,64.55
2023-04-18T22:06:54.727Z,64.31
2023-04-18T22:10:00.724Z,64.21
2023-04-18T22:13:07.823Z,64.01
2023-04-18T22:16:13.909Z,64.74
2023-04-18T22:19:25.081Z,63.83
2023-04-18T22:22:30.824Z,65.10
2023-04-18T22:25:38.021Z,65.12
2023-04-18T22:28:43.489Z,65.38
2023-04-18T22:31:50.384Z,64.50
2023-04-18T22:34:58.872Z,65.56
2023-04-18T22:38:05.279Z,64.77
2023-04-18T22:41:11.224Z,65.58
2023-04-18T22:44:20.016Z,65.40
2023-04-18T22:47:25.716Z,66.26
2023-04-18T22:50:38.100Z,66.22
2023-04-18T22:53:43.626Z,65.81
2023-04-18T22:56:51.199Z,66.06
2023-04-18T22:59:56.878Z,66.44
2023-04-18T23:03:03.493Z,65.55
2023-04-18T23:06:12.958Z,65.63
2023-04-18T23:09:19.957Z,65.35
2023-04-18T23:12:25.457Z,65.84
2023-04-18T23:15:31.863Z,65.60
2023-04-18T23:18:37.407Z,66.56
2023-04-18T23:21:47.720Z,66.12
2023-04-18T23:24:55.056Z,66.13
2023-04-18T23:28:01.352Z,66.61
2023-04-18T23:31:07.001Z,65.81
2023-04-18T23:34:14.006Z,66.01
2023-04-18T23:37:22.594Z,66.35
2023-04-18T23:40:29.131Z,65.85
2023-04-18T23:43:34.666Z,66.93
2023-04-18T23:46:41.148Z,66.50
2023-04-18T23:49:46.631Z,67.63
2023-04-18T23:52:55.855Z,66.84
2023-04-18T23:56:01.309Z,66.50
2023-04-18T23:59:07.635Z,67.77
